Time;durP1;ratioP1;P1;durP2;ratioP2;P2;SDS_P1;SDS_P2;PMS_P1;PMS_P2;Temp;Humidity;BMP_temperature;BMP_pressure;BME280_temperature;BME280_humidity;BME280_pressure;Samples;Min_cycle;Max_cycle;Signal;HPM_P1;HPM_P2
2023/07/18 00:02:19;;;;;;;5.63;4.95;;;;;;;-140.66;100.00;55571.53;5106477;28;20353;-72
2023/07/18 00:05:07;;;;;;;6.70;5.22;;;;;;;-140.66;100.00;55571.53;5108400;28;20337;-74
2023/07/18 00:07:53;;;;;;;10.30;5.43;;;;;;;-140.66;100.00;55571.53;5105979;28;20065;-74
2023/07/18 00:10:38;;;;;;;6.90;5.07;;;;;;;-140.66;100.00;55571.53;5118366;28;20027;-75
2023/07/18 00:13:24;;;;;;;6.57;5.60;;;;;;;-140.66;100.00;55571.53;5117856;28;20145;-73
2023/07/18 00:16:10;;;;;;;9.93;5.28;;;;;;;-140.66;100.00;55571.53;5104373;28;20024;-74
2023/07/18 00:18:56;;;;;;;7.18;5.88;;;;;;;-140.66;100.00;55571.53;5101914;28;20035;-75
2023/07/18 00:21:41;;;;;;;10.00;5.38;;;;;;;-140.66;100.00;55571.53;5116201;28;20460;-75
2023/07/18 00:24:28;;;;;;;7.18;5.70;;;;;;;-140.66;100.00;55571.53;5116472;28;20020;-76
2023/07/18 00:27:16;;;;;;;5.80;5.20;;;;;;;-140.66;100.00;55571.53;5116660;28;20028;-74
2023/07/18 00:30:03;;;;;;;7.72;5.57;;;;;;;-140.66;100.00;55571.53;5116065;28;20089;-75
2023/07/18 00:32:49;;;;;;;9.30;5.82;;;;;;;-140.66;100.00;55571.53;5102478;28;20034;-70
2023/07/18 00:35:34;;;;;;;9.30;5.47;;;;;;;-140.66;100.00;55571.53;5122309;28;20064;-75
2023/07/18 00:38:20;;;;;;;7.25;5.63;;;;;;;-140.66;100.00;55571.53;5105788;28;20107;-74
2023/07/18 00:41:08;;;;;;;8.40;5.47;;;;;;;-140.66;100.00;55571.53;5116248;28;20028;-74
2023/07/18 00:43:54;;;;;;;8.68;5.65;;;;;;;-140.66;100.00;55571.53;5116484;28;20032;-75
2023/07/18 00:46:39;;;;;;;6.65;5.30;;;;;;;-140.66;100.00;55571.53;5116586;28;20015;-75
2023/07/18 00:49:25;;;;;;;11.45;5.85;;;;;;;-140.66;100.00;55571.53;5115615;28;20036;-73
2023/07/18 00:52:12;;;;;;;10.18;5.80;;;;;;;-140.66;100.00;55571.53;5115932;28;20367;-74
2023/07/18 00:54:58;;;;;;;10.82;6.18;;;;;;;-140.66;100.00;55571.53;5115161;28;20389;-75
2023/07/18 00:57:46;;;;;;;8.10;5.70;;;;;;;-140.66;100.00;55571.53;5115972;28;20106;-75
2023/07/18 01:00:31;;;;;;;6.75;5.75;;;;;;;-140.66;100.00;55571.53;5115348;28;20375;-75
2023/07/18 01:03:18;;;;;;;8.80;5.72;;;;;;;-140.66;100.00;55571.53;5114607;28;20581;-75
2023/07/18 01:06:05;;;;;;;9.77;5.75;;;;;;;-140.66;100.00;55571.53;5115081;28;20023;-75
2023/07/18 01:08:51;;;;;;;7.80;5.65;;;;;;;-140.66;100.00;55571.53;5115431;28;20077;-75
2023/07/18 01:11:36;;;;;;;9.10;6.50;;;;;;;-140.66;100.00;55571.53;5115497;28;20062;-73
2023/07/18 01:14:25;;;;;;;10.50;6.75;;;;;;;-140.66;100.00;55571.53;5100739;28;20034;-75
2023/07/18 01:17:12;;;;;;;7.18;5.68;;;;;;;-140.66;100.00;55571.53;5115887;28;20020;-75
2023/07/18 01:19:58;;;;;;;6.43;5.70;;;;;;;-140.66;100.00;55571.53;5099756;27;20054;-74
2023/07/18 01:22:47;;;;;;;7.75;5.65;;;;;;;-140.66;100.00;55571.53;5114240;28;20030;-75
2023/07/18 01:25:33;;;;;;;7.93;6.32;;;;;;;-140.66;100.00;55571.53;5115941;28;20031;-74
2023/07/18 01:28:19;;;;;;;7.35;6.25;;;;;;;-140.66;100.00;55571.53;5115640;28;20034;-75
2023/07/18 01:31:08;;;;;;;6.45;5.53;;;;;;;-140.66;100.00;55571.53;5115151;28;20028;-75
2023/07/18 01:33:53;;;;;;;9.15;5.93;;;;;;;-140.66;100.00;55571.53;5115517;28;20073;-74
2023/07/18 01:36:40;;;;;;;10.85;6.22;;;;;;;-140.66;100.00;55571.53;5100621;28;20487;-74
2023/07/18 01:39:26;;;;;;;6.78;5.63;;;;;;;-140.66;100.00;55571.53;5114488;28;20463;-75
2023/07/18 01:42:12;;;;;;;7.72;5.75;;;;;;;-140.66;100.00;55571.53;5101369;28;20029;-74
2023/07/18 01:44:57;;;;;;;8.77;5.45;;;;;;;-140.66;100.00;55571.53;5100827;28;20085;-75
2023/07/18 01:47:43;;;;;;;6.45;5.63;;;;;;;-140.66;100.00;55571.53;5114959;28;20419;-75
2023/07/18 01:50:29;;;;;;;7.95;5.70;;;;;;;-140.66;100.00;55571.53;5113137;28;20023;-75
2023/07/18 01:53:14;;;;;;;6.70;5.53;;;;;;;-140.66;100.00;55571.53;5114432;28;20204;-75
2023/07/18 01:56:00;;;;;;;7.63;5.30;;;;;;;-140.66;100.00;55571.53;5099783;28;20027;-74
2023/07/18 01:58:46;;;;;;;9.85;5.68;;;;;;;-140.66;100.00;55571.53;5115409;28;20439;-74
2023/07/18 02:01:32;;;;;;;10.60;5.82;;;;;;;-140.66;100.00;55571.53;5100745;28;20348;-75
2023/07/18 02:04:18;;;;;;;6.85;5.53;;;;;;;-140.66;100.00;55571.53;5115198;28;20038;-74
2023/07/18 02:07:04;;;;;;;11.93;5.53;;;;;;;-140.66;100.00;55571.53;5114959;28;20447;-74
2023/07/18 02:09:49;;;;;;;7.88;5.55;;;;;;;-140.66;100.00;55571.53;5114248;28;20371;-74
2023/07/18 02:12:35;;;;;;;8.43;5.78;;;;;;;-140.66;100.00;55571.53;5115187;28;20114;-74
2023/07/18 02:15:21;;;;;;;7.85;5.97;;;;;;;-140.66;100.00;55571.53;5114468;28;20027;-74
2023/07/18 02:18:07;;;;;;;6.65;5.63;;;;;;;-140.66;100.00;55571.53;5116582;28;20093;-74
2023/07/18 02:20:53;;;;;;;8.18;5.55;;;;;;;-140.66;100.00;55571.53;5118497;28;20081;-74
2023/07/18 02:23:39;;;;;;;8.18;5.68;;;;;;;-140.66;100.00;55571.53;5118217;28;20466;-74
2023/07/18 02:26:25;;;;;;;13.75;5.90;;;;;;;-140.66;100.00;55571.53;5118940;28;20058;-74
2023/07/18 02:29:10;;;;;;;8.35;6.15;;;;;;;-140.66;100.00;55571.53;5104557;28;20085;-74
2023/07/18 02:31:56;;;;;;;7.05;6.00;;;;;;;-140.66;100.00;55571.53;5118803;28;20024;-75
2023/07/18 02:34:42;;;;;;;9.43;5.93;;;;;;;-140.66;100.00;55571.53;5116981;28;20336;-75
2023/07/18 02:37:28;;;;;;;11.40;6.22;;;;;;;-140.66;100.00;55571.53;5118776;28;20084;-75
2023/07/18 02:40:17;;;;;;;7.45;6.40;;;;;;;-140.66;100.00;55571.53;5117938;28;20027;-74
2023/07/18 02:43:02;;;;;;;6.55;5.40;;;;;;;-140.66;100.00;55571.53;5118994;28;20055;-75
2023/07/18 02:45:48;;;;;;;9.32;5.65;;;;;;;-140.66;100.00;55571.53;5118864;28;20050;-74
2023/07/18 02:48:34;;;;;;;7.93;5.80;;;;;;;-140.66;100.00;55571.53;5118422;28;20027;-75
2023/07/18 02:51:19;;;;;;;6.95;5.82;;;;;;;-140.66;100.00;55571.53;5119037;28;20034;-74
2023/07/18 02:54:05;;;;;;;9.27;5.80;;;;;;;-140.66;100.00;55571.53;5117689;28;20062;-74
2023/07/18 02:56:51;;;;;;;5.90;5.32;;;;;;;-140.66;100.00;55571.53;5118025;28;20027;-74
2023/07/18 02:59:37;;;;;;;9.65;6.20;;;;;;;-140.66;100.00;55571.53;5118205;28;20034;-75
2023/07/18 03:02:23;;;;;;;7.35;5.70;;;;;;;-140.66;100.00;55571.53;5118658;28;20031;-75
2023/07/18 03:05:09;;;;;;;7.30;5.82;;;;;;;-140.66;100.00;55571.53;5103816;28;20117;-74
2023/07/18 03:07:55;;;;;;;10.00;6.00;;;;;;;-140.66;100.00;55571.53;5117983;28;20031;-75
2023/07/18 03:10:42;;;;;;;7.60;6.20;;;;;;;-140.66;100.00;55571.53;5117429;28;20089;-75
2023/07/18 03:13:28;;;;;;;9.35;5.75;;;;;;;-140.66;100.00;55571.53;5117903;28;20054;-76
2023/07/18 03:16:13;;;;;;;6.93;5.95;;;;;;;-140.66;100.00;55571.53;5117415;28;20034;-75
2023/07/18 03:18:59;;;;;;;11.98;6.45;;;;;;;-140.66;100.00;55571.53;5117648;28;20031;-75
2023/07/18 03:21:45;;;;;;;12.27;6.43;;;;;;;-140.66;100.00;55571.53;5117050;28;20082;-74
2023/07/18 03:24:33;;;;;;;8.82;5.60;;;;;;;-140.66;100.00;55571.53;5118151;28;20016;-74
2023/07/18 03:27:19;;;;;;;7.43;5.90;;;;;;;-140.66;100.00;55571.53;5116957;28;20375;-74
2023/07/18 03:30:12;;;;;;;10.45;5.82;;;;;;;-140.66;100.00;55571.53;5117253;28;20045;-74
2023/07/18 03:32:57;;;;;;;9.60;6.40;;;;;;;-140.66;100.00;55571.53;5103792;28;20106;-77
2023/07/18 03:35:43;;;;;;;10.20;6.55;;;;;;;-140.66;100.00;55571.53;5117941;28;20111;-73
2023/07/18 03:38:29;;;;;;;11.45;6.38;;;;;;;-140.66;100.00;55571.53;5103444;28;20089;-74
2023/07/18 03:41:14;;;;;;;13.52;6.68;;;;;;;-140.66;100.00;55571.53;5102407;28;20473;-74
2023/07/18 03:44:00;;;;;;;9.80;6.50;;;;;;;-140.66;100.00;55571.53;5117949;28;20023;-74
2023/07/18 03:46:46;;;;;;;9.38;6.90;;;;;;;-140.66;100.00;55571.53;5102136;28;20030;-74
2023/07/18 03:49:32;;;;;;;8.48;6.85;;;;;;;-140.66;100.00;55571.53;5102455;28;20031;-74
2023/07/18 03:52:18;;;;;;;12.35;6.80;;;;;;;-140.66;100.00;55571.53;5117349;28;20045;-74
2023/07/18 03:55:04;;;;;;;8.43;6.60;;;;;;;-140.66;100.00;55571.53;5116283;28;20062;-75
2023/07/18 03:57:50;;;;;;;7.70;6.45;;;;;;;-140.66;100.00;55571.53;5116142;28;20028;-75
2023/07/18 04:00:36;;;;;;;8.80;7.25;;;;;;;-140.66;100.00;55571.53;5116517;28;20066;-75
2023/07/18 04:03:22;;;;;;;9.82;7.13;;;;;;;-140.66;100.00;55571.53;5116958;28;20454;-75
2023/07/18 04:06:08;;;;;;;10.25;7.68;;;;;;;-140.66;100.00;55571.53;5116398;28;20016;-75
2023/07/18 04:08:54;;;;;;;13.55;7.28;;;;;;;-140.66;100.00;55571.53;5116875;28;20074;-75
2023/07/18 04:11:41;;;;;;;13.18;7.07;;;;;;;-140.66;100.00;55571.53;5102901;28;20055;-75
2023/07/18 04:14:26;;;;;;;11.15;7.22;;;;;;;-140.66;100.00;55571.53;5116749;28;20035;-74
2023/07/18 04:17:12;;;;;;;10.60;7.50;;;;;;;-140.66;100.00;55571.53;5102518;28;20035;-74
2023/07/18 04:20:01;;;;;;;11.32;7.85;;;;;;;-140.66;100.00;55571.53;5101364;28;20081;-74
2023/07/18 04:22:47;;;;;;;10.25;7.32;;;;;;;-140.66;100.00;55571.53;5117416;28;20117;-74
2023/07/18 04:25:34;;;;;;;11.98;7.63;;;;;;;-140.66;100.00;55571.53;5115581;28;20016;-74
2023/07/18 04:28:20;;;;;;;11.45;7.90;;;;;;;-140.66;100.00;55571.53;5116668;28;20087;-74
2023/07/18 04:31:06;;;;;;;9.32;7.30;;;;;;;-140.66;100.00;55571.53;5116339;28;20030;-74
2023/07/18 04:33:52;;;;;;;14.90;8.07;;;;;;;-140.66;100.00;55571.53;5101665;28;20028;-74
2023/07/18 04:36:38;;;;;;;14.07;8.23;;;;;;;-140.66;100.00;55571.53;5116102;28;20032;-74
2023/07/18 04:39:24;;;;;;;8.77;7.57;;;;;;;-140.66;100.00;55571.53;5115354;28;20024;-74
2023/07/18 04:42:11;;;;;;;12.20;8.07;;;;;;;-140.66;100.00;55571.53;5120455;28;20050;-74
2023/07/18 04:44:57;;;;;;;14.90;8.15;;;;;;;-140.66;100.00;55571.53;5101585;28;20463;-74
2023/07/18 04:47:43;;;;;;;10.75;7.88;;;;;;;-140.66;100.00;55571.53;5100754;28;20439;-75
2023/07/18 04:50:29;;;;;;;15.48;8.45;;;;;;;-140.66;100.00;55571.53;5115783;28;20391;-75
2023/07/18 04:53:14;;;;;;;15.15;8.10;;;;;;;-140.66;100.00;55571.53;5101563;28;20046;-74
2023/07/18 04:56:00;;;;;;;18.65;8.88;;;;;;;-140.66;100.00;55571.53;5115331;28;20098;-74
2023/07/18 04:58:46;;;;;;;12.52;8.57;;;;;;;-140.66;100.00;55571.53;5101142;28;20080;-74
2023/07/18 05:01:32;;;;;;;14.50;9.23;;;;;;;-140.66;100.00;55571.53;5117097;28;20106;-75
2023/07/18 05:04:17;;;;;;;12.40;8.85;;;;;;;-140.66;100.00;55571.53;5102875;28;20019;-74
2023/07/18 05:07:03;;;;;;;12.27;8.73;;;;;;;-140.66;100.00;55571.53;5100847;28;20082;-74
2023/07/18 05:09:49;;;;;;;17.80;9.38;;;;;;;-140.66;100.00;55571.53;5116270;28;20027;-74
2023/07/18 05:12:35;;;;;;;11.68;8.73;;;;;;;-140.66;100.00;55571.53;5116184;28;20046;-74
2023/07/18 05:15:21;;;;;;;21.58;8.90;;;;;;;-140.66;100.00;55571.53;5102333;28;20061;-74
2023/07/18 05:18:07;;;;;;;16.00;9.07;;;;;;;-140.66;100.00;55571.53;5103059;28;20028;-73
2023/07/18 05:20:55;;;;;;;13.18;9.55;;;;;;;-140.66;100.00;55571.53;5118363;28;20078;-74
2023/07/18 05:23:41;;;;;;;21.15;10.35;;;;;;;-140.66;100.00;55571.53;5118008;28;20028;-74
2023/07/18 05:26:27;;;;;;;13.70;10.57;;;;;;;-140.66;100.00;55571.53;5118339;28;20328;-73
2023/07/18 05:29:13;;;;;;;22.92;11.35;;;;;;;-140.66;100.00;55571.53;5119537;28;20028;-75
2023/07/18 05:31:59;;;;;;;20.83;12.02;;;;;;;-140.66;100.00;55571.53;5119992;28;20495;-74
2023/07/18 05:34:45;;;;;;;17.15;12.70;;;;;;;-140.66;100.00;55571.53;5120356;28;20023;-74
2023/07/18 05:37:30;;;;;;;16.33;12.82;;;;;;;-140.66;100.00;55571.53;5120059;28;20042;-74
2023/07/18 05:40:16;;;;;;;19.25;12.30;;;;;;;-140.66;100.00;55571.53;5115172;28;20027;-75
2023/07/18 05:43:02;;;;;;;16.58;12.23;;;;;;;-140.66;100.00;55571.53;5100819;28;20027;-74
2023/07/18 05:45:49;;;;;;;19.55;13.23;;;;;;;-140.66;100.00;55571.53;5100628;28;20027;-75
2023/07/18 05:48:34;;;;;;;20.58;13.10;;;;;;;-140.66;100.00;55571.53;5115374;28;20110;-75
2023/07/18 05:51:20;;;;;;;19.65;13.93;;;;;;;-140.66;100.00;55571.53;5114686;28;20055;-74
2023/07/18 05:54:06;;;;;;;22.48;13.68;;;;;;;-140.66;100.00;55571.53;5114625;28;20106;-74
2023/07/18 05:56:52;;;;;;;18.23;13.15;;;;;;;-140.66;100.00;55571.53;5113582;28;20496;-74
2023/07/18 05:59:37;;;;;;;16.10;13.40;;;;;;;-140.66;100.00;55571.53;5115180;28;20020;-74
2023/07/18 06:02:23;;;;;;;19.58;14.20;;;;;;;-140.66;100.00;55571.53;5115000;28;20034;-75
2023/07/18 06:05:10;;;;;;;22.00;14.38;;;;;;;-140.66;100.00;55571.53;5099830;28;20103;-75
2023/07/18 06:07:55;;;;;;;21.05;14.85;;;;;;;-140.66;100.00;55571.53;5100263;28;20020;-75
2023/07/18 06:10:41;;;;;;;19.27;15.00;;;;;;;-140.66;100.00;55571.53;5114272;28;20455;-74
2023/07/18 06:13:27;;;;;;;21.80;15.57;;;;;;;-140.66;100.00;55571.53;5100263;28;20058;-75
2023/07/18 06:16:12;;;;;;;22.98;15.75;;;;;;;-140.66;100.00;55571.53;5115203;28;20032;-75
2023/07/18 06:18:58;;;;;;;20.45;15.25;;;;;;;-140.66;100.00;55571.53;5114921;28;20114;-76
2023/07/18 06:21:44;;;;;;;21.23;15.32;;;;;;;-140.66;100.00;55571.53;5114099;28;20047;-75
2023/07/18 06:24:30;;;;;;;19.60;15.50;;;;;;;-140.66;100.00;55571.53;5114721;28;20093;-75
2023/07/18 06:27:15;;;;;;;23.60;16.55;;;;;;;-140.66;100.00;55571.53;5099185;28;20027;-74
2023/07/18 06:30:02;;;;;;;20.35;15.57;;;;;;;-140.66;100.00;55571.53;5114312;28;20031;-74
2023/07/18 06:32:49;;;;;;;19.00;15.18;;;;;;;-140.66;100.00;55571.53;5114797;28;20096;-75
2023/07/18 06:35:37;;;;;;;22.25;15.68;;;;;;;-140.66;100.00;55571.53;5114179;28;20130;-74
2023/07/18 06:38:24;;;;;;;21.52;15.43;;;;;;;-140.66;100.00;55571.53;5114862;28;20024;-75
2023/07/18 06:41:12;;;;;;;22.05;15.68;;;;;;;-140.66;100.00;55571.53;5114953;28;20032;-74
2023/07/18 06:43:58;;;;;;;19.73;15.73;;;;;;;-140.66;100.00;55571.53;5114384;28;20039;-75
2023/07/18 06:46:43;;;;;;;20.58;15.43;;;;;;;-140.66;100.00;55571.53;5114771;28;20459;-75
2023/07/18 06:49:29;;;;;;;21.33;17.40;;;;;;;-140.66;100.00;55571.53;5099273;28;20034;-75
2023/07/18 06:52:15;;;;;;;19.55;16.98;;;;;;;-140.66;100.00;55571.53;5114618;28;20024;-75
2023/07/18 06:55:00;;;;;;;21.30;16.88;;;;;;;-140.66;100.00;55571.53;5112961;28;20027;-75
2023/07/18 06:57:47;;;;;;;20.95;16.48;;;;;;;-140.66;100.00;55571.53;5114054;28;20039;-75
2023/07/18 07:00:33;;;;;;;25.17;17.33;;;;;;;-140.66;100.00;55571.53;5114839;28;20020;-75
2023/07/18 07:03:19;;;;;;;23.08;17.25;;;;;;;-140.66;100.00;55571.53;5115077;28;20084;-75
2023/07/18 07:06:12;;;;;;;23.05;17.52;;;;;;;-140.66;100.00;55571.53;5118198;28;20448;-74
2023/07/18 07:08:58;;;;;;;22.60;18.05;;;;;;;-140.66;100.00;55571.53;5118103;28;20413;-75
2023/07/18 07:11:44;;;;;;;23.75;17.48;;;;;;;-140.66;100.00;55571.53;5103096;28;20448;-75
2023/07/18 07:14:29;;;;;;;25.17;18.25;;;;;;;-140.66;100.00;55571.53;5118274;28;20416;-75
2023/07/18 07:17:15;;;;;;;22.58;18.02;;;;;;;-140.66;100.00;55571.53;5117074;28;20141;-75
2023/07/18 07:20:01;;;;;;;23.75;17.98;;;;;;;-140.66;100.00;55571.53;5116981;28;20470;-75
2023/07/18 07:22:47;;;;;;;23.42;19.20;;;;;;;-140.66;100.00;55571.53;5117694;28;20027;-75
2023/07/18 07:25:33;;;;;;;30.95;18.10;;;;;;;-140.66;100.00;55571.53;5117526;28;20019;-75
2023/07/18 07:28:19;;;;;;;22.38;17.23;;;;;;;-140.66;100.00;55571.53;5117058;28;20028;-75
2023/07/18 07:31:05;;;;;;;22.10;15.98;;;;;;;-140.66;100.00;55571.53;5117554;28;20455;-74
2023/07/18 07:33:51;;;;;;;23.35;17.88;;;;;;;-140.66;100.00;55571.53;5118427;28;20023;-75
2023/07/18 07:36:36;;;;;;;22.70;18.73;;;;;;;-140.66;100.00;55571.53;5118323;28;20024;-75
2023/07/18 07:39:22;;;;;;;21.75;17.60;;;;;;;-140.66;100.00;55571.53;5117178;28;20023;-75
2023/07/18 07:42:08;;;;;;;20.73;17.58;;;;;;;-140.66;100.00;55571.53;5102280;28;20024;-75
2023/07/18 07:44:54;;;;;;;23.92;17.73;;;;;;;-140.66;100.00;55571.53;5117813;28;20092;-75
2023/07/18 07:47:40;;;;;;;23.73;18.15;;;;;;;-140.66;100.00;55571.53;5102648;28;20024;-75
2023/07/18 07:50:25;;;;;;;28.88;17.25;;;;;;;-140.66;100.00;55571.53;5103101;28;20058;-75
2023/07/18 07:53:11;;;;;;;23.45;18.45;;;;;;;-140.66;100.00;55571.53;5117311;28;20092;-76
2023/07/18 07:55:57;;;;;;;23.05;18.42;;;;;;;-140.66;100.00;55571.53;5102822;28;20054;-75
2023/07/18 07:58:43;;;;;;;28.30;18.33;;;;;;;-140.66;100.00;55571.53;5117550;28;20169;-75
2023/07/18 08:01:29;;;;;;;21.58;17.48;;;;;;;-140.66;100.00;55571.53;5115928;28;20063;-74
2023/07/18 08:04:14;;;;;;;20.05;17.48;;;;;;;-140.66;100.00;55571.53;5101974;28;20046;-75
2023/07/18 08:07:00;;;;;;;20.63;16.90;;;;;;;-140.66;100.00;55571.53;5116840;28;20064;-75
2023/07/18 08:09:46;;;;;;;25.15;17.45;;;;;;;-140.66;100.00;55571.53;5116950;28;20028;-75
2023/07/18 08:12:31;;;;;;;17.85;15.85;;;;;;;-140.66;100.00;55571.53;5116800;28;20028;-75
2023/07/18 08:15:18;;;;;;;18.52;15.98;;;;;;;-140.66;100.00;55571.53;5118471;28;20085;-75
2023/07/18 08:18:03;;;;;;;21.90;16.77;;;;;;;-140.66;100.00;55571.53;5116884;28;20055;-75
2023/07/18 08:20:49;;;;;;;21.58;15.57;;;;;;;-140.66;100.00;55571.53;5116539;28;20051;-75
2023/07/18 08:23:35;;;;;;;22.40;15.52;;;;;;;-140.66;100.00;55571.53;5116745;28;20436;-75
2023/07/18 08:26:21;;;;;;;19.73;15.23;;;;;;;-140.66;100.00;55571.53;5116829;28;20085;-75
2023/07/18 08:29:06;;;;;;;24.70;15.98;;;;;;;-140.66;100.00;55571.53;5116377;28;20448;-75
2023/07/18 08:31:54;;;;;;;18.65;16.35;;;;;;;-140.66;100.00;55571.53;5116028;28;20481;-74
2023/07/18 08:34:40;;;;;;;20.50;15.25;;;;;;;-140.66;100.00;55571.53;5101462;28;20089;-75
2023/07/18 08:37:25;;;;;;;29.08;17.33;;;;;;;-140.66;100.00;55571.53;5116358;28;20491;-75
2023/07/18 08:40:12;;;;;;;19.92;16.08;;;;;;;-140.66;100.00;55571.53;5116612;28;20448;-75
2023/07/18 08:42:58;;;;;;;19.10;15.52;;;;;;;-140.66;100.00;55571.53;5118126;28;20019;-73
2023/07/18 08:45:46;;;;;;;22.40;16.05;;;;;;;-140.66;100.00;55571.53;5103235;28;20016;-73
2023/07/18 08:48:32;;;;;;;17.75;15.35;;;;;;;-140.66;100.00;55571.53;5118226;28;20032;-74
2023/07/18 08:51:20;;;;;;;24.98;16.30;;;;;;;-140.66;100.00;55571.53;5120339;28;20057;-74
2023/07/18 08:54:06;;;;;;;19.98;16.30;;;;;;;-140.66;100.00;55571.53;5118729;28;20029;-74
2023/07/18 08:56:51;;;;;;;20.65;16.13;;;;;;;-140.66;100.00;55571.53;5101651;28;20031;-75
2023/07/18 08:59:39;;;;;;;22.20;15.88;;;;;;;-140.66;100.00;55571.53;5115718;28;20028;-74
2023/07/18 09:02:25;;;;;;;21.05;15.55;;;;;;;-140.66;100.00;55571.53;5101047;28;20036;-75
2023/07/18 09:05:32;;;;;;;21.58;15.55;;;;;;;-140.66;100.00;55571.53;5115568;28;20424;-75
2023/07/18 09:08:18;;;;;;;26.13;15.00;;;;;;;-140.66;100.00;55571.53;5116110;28;20095;-76
2023/07/18 09:11:04;;;;;;;19.35;14.93;;;;;;;-140.66;100.00;55571.53;5115776;28;20031;-75
2023/07/18 09:13:50;;;;;;;17.70;15.40;;;;;;;-140.66;100.00;55571.53;5114887;28;20031;-74
2023/07/18 09:16:35;;;;;;;18.83;15.43;;;;;;;-140.66;100.00;55571.53;5115497;28;20110;-75
2023/07/18 09:19:48;;;;;;;21.67;14.95;;;;;;;-140.66;100.00;55571.53;5114714;28;20031;-75
2023/07/18 09:22:35;;;;;;;16.88;14.43;;;;;;;-140.66;100.00;55571.53;5115675;28;20118;-75
2023/07/18 09:25:21;;;;;;;17.52;14.52;;;;;;;-140.66;100.00;55571.53;5115318;28;20039;-76
2023/07/18 09:28:11;;;;;;;19.15;13.95;;;;;;;-140.66;100.00;55571.53;5115114;28;20020;-74
2023/07/18 09:30:57;;;;;;;17.08;13.50;;;;;;;-140.66;100.00;55571.53;5114166;28;20035;-75
2023/07/18 09:33:45;;;;;;;15.70;13.73;;;;;;;-140.66;100.00;55571.53;5115005;28;20060;-75
2023/07/18 09:36:33;;;;;;;15.68;13.82;;;;;;;-140.66;100.00;55571.53;5115919;28;20439;-75
2023/07/18 09:39:19;;;;;;;22.90;14.75;;;;;;;-140.66;100.00;55571.53;5115296;28;20050;-75
2023/07/18 09:42:06;;;;;;;15.48;12.75;;;;;;;-140.66;100.00;55571.53;5099946;28;20065;-74
2023/07/18 09:44:52;;;;;;;16.67;13.98;;;;;;;-140.66;100.00;55571.53;5115207;28;20019;-74
2023/07/18 09:47:39;;;;;;;15.40;13.80;;;;;;;-140.66;100.00;55571.53;5115254;28;20074;-75
2023/07/18 09:50:26;;;;;;;16.95;13.23;;;;;;;-140.66;100.00;55571.53;5114644;28;20039;-74
2023/07/18 09:53:13;;;;;;;23.50;14.18;;;;;;;-140.66;100.00;55571.53;5113705;28;20433;-74
2023/07/18 09:56:00;;;;;;;16.90;12.15;;;;;;;-140.66;100.00;55571.53;5114566;28;20447;-74
2023/07/18 09:58:49;;;;;;;14.77;12.23;;;;;;;-140.66;100.00;55571.53;5114900;28;20023;-74
2023/07/18 10:01:37;;;;;;;15.55;12.35;;;;;;;-140.66;100.00;55571.53;5115215;28;20031;-74
2023/07/18 10:04:23;;;;;;;14.32;10.63;;;;;;;-140.66;100.00;55571.53;5114041;28;20032;-74
2023/07/18 10:07:09;;;;;;;12.45;9.98;;;;;;;-140.66;100.00;55571.53;5114889;28;20066;-76
2023/07/18 10:09:56;;;;;;;17.05;10.95;;;;;;;-140.66;100.00;55571.53;5115190;28;20035;-75
2023/07/18 10:12:54;;;;;;;11.38;10.25;;;;;;;-140.66;100.00;55571.53;5114923;28;20459;-74
2023/07/18 10:16:16;;;;;;;12.73;10.27;;;;;;;-140.66;100.00;55571.53;5114473;28;20118;-75
2023/07/18 10:19:18;;;;;;;12.20;9.93;;;;;;;-140.66;100.00;55571.53;5113918;28;20360;-75
2023/07/18 10:22:04;;;;;;;15.98;11.07;;;;;;;-140.66;100.00;55571.53;5113188;28;20073;-74
2023/07/18 10:24:49;;;;;;;17.30;11.20;;;;;;;-140.66;100.00;55571.53;5114594;28;20016;-75
2023/07/18 10:27:37;;;;;;;18.45;10.23;;;;;;;-140.66;100.00;55571.53;5114822;28;20028;-74
2023/07/18 10:30:23;;;;;;;14.80;10.48;;;;;;;-140.66;100.00;55571.53;5113879;28;20032;-74
2023/07/18 10:33:09;;;;;;;13.32;10.10;;;;;;;-140.66;100.00;55571.53;5114558;28;20138;-74
2023/07/18 10:35:54;;;;;;;11.77;9.05;;;;;;;-140.66;100.00;55571.53;5114591;28;20461;-75
2023/07/18 10:38:42;;;;;;;13.77;9.30;;;;;;;-140.66;100.00;55571.53;5115574;28;20119;-75
2023/07/18 10:41:27;;;;;;;12.13;9.73;;;;;;;-140.66;100.00;55571.53;5117863;28;20107;-75
2023/07/18 10:44:13;;;;;;;12.00;9.50;;;;;;;-140.66;100.00;55571.53;5118683;28;20088;-75
2023/07/18 10:46:59;;;;;;;17.13;9.85;;;;;;;-140.66;100.00;55571.53;5104689;28;20419;-75
2023/07/18 10:49:47;;;;;;;10.93;9.23;;;;;;;-140.66;100.00;55571.53;5117994;28;20341;-75
2023/07/18 10:52:34;;;;;;;16.73;8.85;;;;;;;-140.66;100.00;55571.53;5117828;28;20038;-75
2023/07/18 10:55:21;;;;;;;14.23;8.60;;;;;;;-140.66;100.00;55571.53;5118338;28;20471;-75
2023/07/18 10:58:14;;;;;;;14.02;8.85;;;;;;;-140.66;100.00;55571.53;5117152;28;20466;-73
2023/07/18 11:00:59;;;;;;;11.32;8.30;;;;;;;-140.66;100.00;55571.53;5103154;28;20019;-75
2023/07/18 11:03:45;;;;;;;13.95;8.10;;;;;;;-140.66;100.00;55571.53;5117835;28;20042;-75
2023/07/18 11:06:31;;;;;;;18.38;8.48;;;;;;;-140.66;100.00;55571.53;5116438;28;20073;-75
2023/07/18 11:09:17;;;;;;;14.48;8.70;;;;;;;-140.66;100.00;55571.53;5117136;28;20440;-74
2023/07/18 11:12:04;;;;;;;10.57;8.38;;;;;;;-140.66;100.00;55571.53;5117768;28;20031;-74
2023/07/18 11:14:50;;;;;;;10.85;8.05;;;;;;;-140.66;100.00;55571.53;5117665;28;20115;-75
2023/07/18 11:17:38;;;;;;;11.23;8.63;;;;;;;-140.66;100.00;55571.53;5117839;28;20066;-74
2023/07/18 11:20:24;;;;;;;10.50;8.55;;;;;;;-140.66;100.00;55571.53;5116815;28;20058;-75
2023/07/18 11:23:10;;;;;;;12.40;8.68;;;;;;;-140.66;100.00;55571.53;5117632;28;20024;-75
2023/07/18 11:25:55;;;;;;;18.33;9.20;;;;;;;-140.66;100.00;55571.53;5102293;28;20329;-74
2023/07/18 11:28:43;;;;;;;13.18;9.20;;;;;;;-140.66;100.00;55571.53;5116924;28;20127;-75
2023/07/18 11:31:31;;;;;;;13.07;8.98;;;;;;;-140.66;100.00;55571.53;5117220;28;20534;-74
2023/07/18 11:34:22;;;;;;;15.50;8.70;;;;;;;-140.66;100.00;55571.53;5116746;28;20056;-75
2023/07/18 11:37:08;;;;;;;11.98;8.52;;;;;;;-140.66;100.00;55571.53;5117509;28;20039;-75
2023/07/18 11:39:57;;;;;;;54.00;10.20;;;;;;;-140.66;100.00;55571.53;5117389;28;20032;-75
2023/07/18 11:42:50;;;;;;;13.23;9.15;;;;;;;-140.66;100.00;55571.53;5116930;28;20038;-75
2023/07/18 11:45:36;;;;;;;16.10;8.40;;;;;;;-140.66;100.00;55571.53;5117947;28;20031;-75
2023/07/18 11:48:21;;;;;;;15.07;8.43;;;;;;;-140.66;100.00;55571.53;5117042;28;20396;-75
2023/07/18 11:51:07;;;;;;;14.63;9.48;;;;;;;-140.66;100.00;55571.53;5116801;28;20398;-74
2023/07/18 11:53:54;;;;;;;9.90;8.82;;;;;;;-140.66;100.00;55571.53;5116477;28;20031;-75
2023/07/18 11:56:40;;;;;;;12.48;9.18;;;;;;;-140.66;100.00;55571.53;5116865;28;20020;-75
2023/07/18 11:59:26;;;;;;;12.75;8.68;;;;;;;-140.66;100.00;55571.53;5117935;28;20045;-75
2023/07/18 12:02:12;;;;;;;11.02;9.02;;;;;;;-140.66;100.00;55571.53;5117605;28;20024;-75
2023/07/18 12:04:57;;;;;;;13.07;9.82;;;;;;;-140.66;100.00;55571.53;5116713;28;20015;-75
2023/07/18 12:07:44;;;;;;;17.23;10.65;;;;;;;-140.66;100.00;55571.53;5103431;28;20417;-76
2023/07/18 12:10:32;;;;;;;12.20;10.35;;;;;;;-140.66;100.00;55571.53;5116529;28;20024;-75
2023/07/18 12:13:18;;;;;;;16.65;10.65;;;;;;;-140.66;100.00;55571.53;5116669;28;20024;-75
2023/07/18 12:16:05;;;;;;;14.23;11.23;;;;;;;-140.66;100.00;55571.53;5116131;28;20040;-75
2023/07/18 12:18:50;;;;;;;13.02;10.27;;;;;;;-140.66;100.00;55571.53;5117372;28;20092;-75
2023/07/18 12:21:36;;;;;;;14.82;10.35;;;;;;;-140.66;100.00;55571.53;5115038;28;20051;-75
2023/07/18 12:24:22;;;;;;;17.67;10.32;;;;;;;-140.66;100.00;55571.53;5117268;28;20463;-75
2023/07/18 12:27:07;;;;;;;12.57;10.07;;;;;;;-140.66;100.00;55571.53;5116691;28;20027;-74